createdAt,value
2019-01-11T00:00:43.300Z,-0.90
2019-01-11T00:03:11.681Z,-0.80
2019-01-11T00:05:40.089Z,-0.80
2019-01-11T00:08:08.468Z,-0.80
2019-01-11T00:10:36.880Z,-0.80
2019-01-11T00:13:05.431Z,-0.80
2019-01-11T00:15:34.458Z,-0.80
2019-01-11T00:18:03.115Z,-0.90
2019-01-11T00:20:31.525Z,-0.90
2019-01-11T00:22:59.958Z,-0.90
2019-01-11T00:25:28.351Z,-0.80
2019-01-11T00:27:56.739Z,-0.80
2019-01-11T00:30:25.143Z,-0.90
2019-01-11T00:32:54.868Z,-0.70
2019-01-11T00:35:23.209Z,-0.70
2019-01-11T00:37:51.670Z,-0.70
2019-01-11T00:40:20.411Z,-0.70
2019-01-11T00:42:50.867Z,-0.60
2019-01-11T00:45:19.248Z,-0.60
2019-01-11T00:47:47.817Z,-0.60
2019-01-11T00:50:16.184Z,-0.70
2019-01-11T00:52:44.589Z,-0.60
2019-01-11T00:55:13.254Z,-0.60
2019-01-11T00:57:43.289Z,-0.70
2019-01-11T01:00:17.583Z,-0.70
2019-01-11T01:02:45.988Z,-0.70
2019-01-11T01:05:14.372Z,-0.70
2019-01-11T01:07:42.768Z,-0.60
2019-01-11T01:10:11.228Z,-0.80
2019-01-11T01:12:39.631Z,-0.90
2019-01-11T01:15:10.489Z,-0.90
2019-01-11T01:17:39.255Z,-0.90
2019-01-11T01:20:13.235Z,-1.10
2019-01-11T01:22:41.752Z,-1.00
2019-01-11T01:25:10.202Z,-0.90
2019-01-11T01:27:38.716Z,-0.80
2019-01-11T01:30:13.675Z,-0.80
2019-01-11T01:32:42.118Z,-0.80
2019-01-11T01:35:10.871Z,-0.80
2019-01-11T01:37:39.335Z,-0.80
2019-01-11T01:40:10.952Z,-1.00
2019-01-11T01:42:39.419Z,-0.90
2019-01-11T01:45:11.135Z,-1.00
2019-01-11T01:47:39.542Z,-1.00
2019-01-11T01:50:09.952Z,-1.10
2019-01-11T01:52:38.343Z,-1.20
2019-01-11T01:55:09.824Z,-1.20
2019-01-11T01:57:38.286Z,-1.20
2019-01-11T02:00:10.022Z,-1.10
2019-01-11T02:02:39.096Z,-1.10
2019-01-11T02:05:09.008Z,-1.10
2019-01-11T02:07:40.452Z,-1.10
2019-01-11T02:10:11.228Z,-1.10
2019-01-11T02:12:39.710Z,-1.00
2019-01-11T02:15:09.617Z,-1.00
2019-01-11T02:17:38.027Z,-1.10
2019-01-11T02:20:09.655Z,-1.10
2019-01-11T02:22:38.061Z,-1.20
2019-01-11T02:25:07.074Z,-1.10
2019-01-11T02:27:35.676Z,-1.10
2019-01-11T02:30:06.848Z,-1.10
2019-01-11T02:32:35.246Z,-1.00
2019-01-11T02:35:04.211Z,-1.00
2019-01-11T02:37:32.725Z,-1.10
2019-01-11T02:40:01.147Z,-1.00
2019-01-11T02:42:29.538Z,-1.00
2019-01-11T02:44:57.938Z,-1.10
2019-01-11T02:47:26.403Z,-1.00
2019-01-11T02:49:55.128Z,-1.00
2019-01-11T02:52:23.585Z,-1.20
2019-01-11T02:54:52.944Z,-1.10
2019-01-11T02:57:21.315Z,-1.10
2019-01-11T02:59:49.718Z,-1.00
2019-01-11T03:02:18.096Z,-1.10
2019-01-11T03:04:46.862Z,-1.10
2019-01-11T03:07:15.230Z,-1.00
2019-01-11T03:09:43.685Z,-1.10
2019-01-11T03:12:12.054Z,-1.10
2019-01-11T03:14:40.447Z,-1.00
2019-01-11T03:17:08.820Z,-1.00
2019-01-11T03:19:37.224Z,-1.00
2019-01-11T03:22:05.645Z,-1.10
2019-01-11T03:24:34.065Z,-1.00
2019-01-11T03:27:02.434Z,-1.00
2019-01-11T03:29:30.811Z,-1.10
2019-01-11T03:31:59.203Z,-1.10
2019-01-11T03:34:27.580Z,-1.20
2019-01-11T03:36:55.985Z,-1.30
2019-01-11T03:39:24.355Z,-1.30
2019-01-11T03:41:54.387Z,-1.50
2019-01-11T03:44:22.764Z,-1.60
2019-01-11T03:46:51.159Z,-1.70
2019-01-11T03:49:19.534Z,-1.60
2019-01-11T03:51:47.951Z,-1.60
2019-01-11T03:54:16.391Z,-1.50
2019-01-11T03:56:44.770Z,-1.40
2019-01-11T03:59:13.191Z,-1.50
2019-01-11T04:01:41.573Z,-1.50
2019-01-11T04:04:10.040Z,-1.50
2019-01-11T04:06:38.416Z,-1.50
2019-01-11T04:09:09.851Z,-1.50
2019-01-11T04:11:38.227Z,-1.60
2019-01-11T04:14:06.644Z,-1.50
2019-01-11T04:16:35.182Z,-1.60
2019-01-11T04:19:05.203Z,-1.70
2019-01-11T04:21:33.599Z,-1.70
2019-01-11T04:24:02.053Z,-1.60
2019-01-11T04:26:30.525Z,-1.70
2019-01-11T04:28:58.857Z,-1.60
2019-01-11T04:31:27.250Z,-1.60
2019-01-11T04:33:55.628Z,-1.60
2019-01-11T04:36:24.315Z,-1.50
2019-01-11T04:38:52.727Z,-1.50
2019-01-11T04:41:21.119Z,-1.40
2019-01-11T04:43:49.784Z,-1.50
2019-01-11T04:46:18.196Z,-1.40
2019-01-11T04:48:48.045Z,-1.40
2019-01-11T04:51:16.491Z,-1.40
2019-01-11T04:53:44.863Z,-1.50
2019-01-11T04:56:13.259Z,-1.40
2019-01-11T04:58:41.646Z,-1.40
2019-01-11T05:01:10.052Z,-1.50
2019-01-11T05:03:38.484Z,-1.70
2019-01-11T05:06:06.923Z,-1.60
2019-01-11T05:08:35.300Z,-1.60
2019-01-11T05:11:04.064Z,-1.60
2019-01-11T05:13:39.033Z,-1.60
2019-01-11T05:16:07.716Z,-1.60
2019-01-11T05:18:37.274Z,-1.50
2019-01-11T05:21:05.648Z,-1.60
2019-01-11T05:23:34.457Z,-1.70
2019-01-11T05:26:02.834Z,-1.80
2019-01-11T05:28:31.521Z,-1.80
2019-01-11T05:31:00.968Z,-1.60
2019-01-11T05:33:29.360Z,-1.50
2019-01-11T05:35:57.732Z,-1.50
2019-01-11T05:38:26.133Z,-1.50
2019-01-11T05:40:54.575Z,-1.40
2019-01-11T05:43:23.245Z,-1.30
2019-01-11T05:45:51.625Z,-1.30
2019-01-11T05:48:20.024Z,-1.40
2019-01-11T05:50:48.763Z,-1.50
2019-01-11T05:53:17.455Z,-1.40
2019-01-11T05:55:46.899Z,-1.50
2019-01-11T05:58:22.975Z,-1.40
2019-01-11T06:00:51.361Z,-1.30
2019-01-11T06:03:19.751Z,-1.40
2019-01-11T06:05:48.257Z,-1.30
2019-01-11T06:08:20.387Z,-1.30
2019-01-11T06:10:48.762Z,-1.50
2019-01-11T06:13:17.240Z,-1.50
2019-01-11T06:15:45.628Z,-1.40
2019-01-11T06:18:14.477Z,-1.30
2019-01-11T06:20:42.854Z,-1.50
2019-01-11T06:23:11.248Z,-1.40
2019-01-11T06:25:39.984Z,-1.40
2019-01-11T06:28:09.535Z,-1.40
2019-01-11T06:30:38.508Z,-1.40
2019-01-11T06:33:06.913Z,-1.50
2019-01-11T06:35:35.622Z,-1.60
2019-01-11T06:38:04.061Z,-1.50
2019-01-11T06:40:32.513Z,-1.50
2019-01-11T06:43:03.629Z,-1.50
2019-01-11T06:45:32.164Z,-1.60
2019-01-11T06:48:00.755Z,-1.60
2019-01-11T06:50:29.375Z,-1.70
2019-01-11T06:52:57.782Z,-1.60
2019-01-11T06:55:27.800Z,-1.70
2019-01-11T06:57:56.246Z,-1.80
2019-01-11T07:00:24.682Z,-1.80
2019-01-11T07:02:54.104Z,-1.70
2019-01-11T07:05:22.591Z,-1.70
2019-01-11T07:07:52.073Z,-1.80
2019-01-11T07:10:23.788Z,-1.70
2019-01-11T07:12:52.168Z,-1.80
2019-01-11T07:15:20.851Z,-1.70
2019-01-11T07:17:49.241Z,-1.70
2019-01-11T07:20:17.640Z,-1.80
2019-01-11T07:22:46.023Z,-1.80
2019-01-11T07:25:15.056Z,-1.80
2019-01-11T07:27:45.075Z,-1.60
2019-01-11T07:30:15.581Z,-1.60
2019-01-11T07:32:44.325Z,-1.60
2019-01-11T07:35:13.086Z,-1.80
2019-01-11T07:37:41.468Z,-1.80
2019-01-11T07:40:11.599Z,-1.90
2019-01-11T07:42:41.617Z,-1.80
2019-01-11T07:45:14.331Z,-2.00
2019-01-11T07:47:42.959Z,-1.80
2019-01-11T07:50:11.361Z,-1.90
2019-01-11T07:52:41.085Z,-2.00
2019-01-11T07:55:09.998Z,-1.90
2019-01-11T07:57:38.366Z,-1.80
2019-01-11T08:00:09.881Z,-1.70
2019-01-11T08:02:38.265Z,-1.70
2019-01-11T08:05:07.131Z,-1.60
2019-01-11T08:07:35.865Z,-1.40
2019-01-11T08:10:07.567Z,-1.40
2019-01-11T08:12:36.147Z,-1.20
2019-01-11T08:15:07.493Z,-1.20
2019-01-11T08:17:35.940Z,-1.00
2019-01-11T08:20:05.567Z,-1.00
2019-01-11T08:22:35.581Z,-1.00
2019-01-11T08:25:04.928Z,-1.00
2019-01-11T08:27:33.295Z,-0.90
2019-01-11T08:30:01.699Z,-1.10
2019-01-11T08:32:30.067Z,-1.00
2019-01-11T08:34:58.472Z,-0.80
2019-01-11T08:37:27.077Z,-0.60
2019-01-11T08:39:55.476Z,-0.60
2019-01-11T08:42:23.852Z,-0.30
2019-01-11T08:44:52.251Z,-0.10
2019-01-11T08:47:20.667Z,0.00
2019-01-11T08:49:49.423Z,0.10
2019-01-11T08:52:17.815Z,0.40
2019-01-11T08:54:46.211Z,0.40
2019-01-11T08:57:14.890Z,0.40
2019-01-11T08:59:43.255Z,0.50
2019-01-11T09:02:12.800Z,0.40
2019-01-11T09:04:41.170Z,0.40
2019-01-11T09:07:09.565Z,0.50
2019-01-11T09:09:37.937Z,0.70
2019-01-11T09:12:06.333Z,0.50
2019-01-11T09:14:39.326Z,0.60
2019-01-11T09:17:07.786Z,0.50
2019-01-11T09:19:36.516Z,0.50
2019-01-11T09:22:04.954Z,0.60
2019-01-11T09:24:33.284Z,0.60
2019-01-11T09:27:02.702Z,0.50
2019-01-11T09:29:31.071Z,0.60
2019-01-11T09:31:59.459Z,0.50
2019-01-11T09:34:27.840Z,0.50
2019-01-11T09:36:56.232Z,0.50
2019-01-11T09:39:24.863Z,0.50
2019-01-11T09:41:53.381Z,0.60
2019-01-11T09:44:21.751Z,0.50
2019-01-11T09:46:50.268Z,0.40
2019-01-11T09:49:18.641Z,0.50
2019-01-11T09:51:47.027Z,0.60
2019-01-11T09:54:15.401Z,0.40
2019-01-11T09:56:43.786Z,0.60
2019-01-11T09:59:12.155Z,0.70
2019-01-11T10:01:40.636Z,0.80
2019-01-11T10:04:10.648Z,0.70
2019-01-11T10:06:40.690Z,0.70
2019-01-11T10:09:09.064Z,0.70
2019-01-11T10:11:37.458Z,0.70
2019-01-11T10:14:05.884Z,0.40
2019-01-11T10:16:34.284Z,0.40
2019-01-11T10:19:02.729Z,0.50
2019-01-11T10:21:31.100Z,0.60
2019-01-11T10:23:59.487Z,0.70
2019-01-11T10:26:27.871Z,0.80
2019-01-11T10:28:56.259Z,0.90
2019-01-11T10:31:24.727Z,0.90
2019-01-11T10:33:53.118Z,1.00
2019-01-11T10:36:21.492Z,1.00
2019-01-11T10:38:49.894Z,1.00
2019-01-11T10:41:18.375Z,1.10
2019-01-11T10:43:47.125Z,1.10
2019-01-11T10:46:19.849Z,1.40
2019-01-11T10:48:48.244Z,1.40
2019-01-11T10:51:19.048Z,1.50
2019-01-11T10:53:49.361Z,1.50
2019-01-11T10:56:17.833Z,1.40
2019-01-11T10:58:46.237Z,1.30
2019-01-11T11:01:14.688Z,1.20
2019-01-11T11:03:43.072Z,1.10
2019-01-11T11:06:11.443Z,1.00
2019-01-11T11:08:39.886Z,1.00
2019-01-11T11:11:09.131Z,0.90
2019-01-11T11:13:37.528Z,0.80
2019-01-11T11:16:05.900Z,0.70
2019-01-11T11:18:34.294Z,0.70
2019-01-11T11:21:02.671Z,0.80
2019-01-11T11:23:31.072Z,0.80
2019-01-11T11:25:59.452Z,0.60
2019-01-11T11:28:27.838Z,0.60
2019-01-11T11:30:56.997Z,0.60
2019-01-11T11:33:25.468Z,0.60
2019-01-11T11:35:53.923Z,0.60
2019-01-11T11:38:22.312Z,0.50
2019-01-11T11:40:50.756Z,0.50
2019-01-11T11:43:19.184Z,0.50
2019-01-11T11:45:47.915Z,0.60
2019-01-11T11:48:16.411Z,0.70
2019-01-11T11:50:44.791Z,0.50
2019-01-11T11:53:13.259Z,0.70
2019-01-11T11:55:41.641Z,0.70
2019-01-11T11:58:11.170Z,0.80
2019-01-11T12:00:39.644Z,0.70
2019-01-11T12:03:08.003Z,0.80
2019-01-11T12:05:38.028Z,0.80
2019-01-11T12:08:06.414Z,0.80
2019-01-11T12:10:34.799Z,0.80
2019-01-11T12:13:03.176Z,0.70
2019-01-11T12:15:31.575Z,0.60
2019-01-11T12:17:59.951Z,0.40
2019-01-11T12:20:28.669Z,0.60
2019-01-11T12:22:57.001Z,0.70
2019-01-11T12:25:25.417Z,0.70
2019-01-11T12:27:53.855Z,0.60
2019-01-11T12:30:22.388Z,0.80
2019-01-11T12:32:50.841Z,0.90
2019-01-11T12:35:21.806Z,0.90
2019-01-11T12:37:50.538Z,0.70
2019-01-11T12:40:20.570Z,0.80
2019-01-11T12:42:48.950Z,0.70
2019-01-11T12:45:17.405Z,0.90
2019-01-11T12:47:45.780Z,0.90
2019-01-11T12:50:22.117Z,1.10
2019-01-11T12:52:52.189Z,1.10
2019-01-11T12:55:20.579Z,1.10
2019-01-11T12:57:49.124Z,1.10
2019-01-11T13:00:18.329Z,1.20
2019-01-11T13:02:46.872Z,1.10
2019-01-11T13:05:18.118Z,1.00
2019-01-11T13:07:46.541Z,1.00
2019-01-11T13:10:17.338Z,1.00
2019-01-11T13:12:45.700Z,0.90
2019-01-11T13:15:16.506Z,0.80
2019-01-11T13:17:44.881Z,0.70
2019-01-11T13:20:15.404Z,0.80
2019-01-11T13:22:44.068Z,0.80
2019-01-11T13:25:12.591Z,0.70
2019-01-11T13:27:40.962Z,0.60
2019-01-11T13:30:12.126Z,0.70
2019-01-11T13:32:40.495Z,0.90
2019-01-11T13:35:08.894Z,0.90
2019-01-11T13:37:37.529Z,0.90
2019-01-11T13:40:09.445Z,0.90
2019-01-11T13:42:37.820Z,1.00
2019-01-11T13:45:07.560Z,1.00
2019-01-11T13:47:37.582Z,0.90
2019-01-11T13:50:15.724Z,1.00
2019-01-11T13:52:44.096Z,1.00
2019-01-11T13:55:12.459Z,0.90
2019-01-11T13:57:40.847Z,0.90
2019-01-11T14:00:14.713Z,0.90
2019-01-11T14:02:43.188Z,0.90
2019-01-11T14:05:11.550Z,0.90
2019-01-11T14:07:39.941Z,0.80
2019-01-11T14:10:08.403Z,0.80
2019-01-11T14:12:36.798Z,0.60
2019-01-11T14:15:07.707Z,0.40
2019-01-11T14:17:36.529Z,0.20
2019-01-11T14:20:07.237Z,0.10
2019-01-11T14:22:35.622Z,0.10
2019-01-11T14:25:06.229Z,0.10
2019-01-11T14:27:34.716Z,0.10
2019-01-11T14:30:04.543Z,0.10
2019-01-11T14:32:32.972Z,0.20
2019-01-11T14:35:01.327Z,0.10
2019-01-11T14:37:32.364Z,0.00
2019-01-11T14:39:59.795Z,0.00
2019-01-11T14:42:28.190Z,-0.10
2019-01-11T14:44:56.568Z,-0.10
2019-01-11T14:47:25.457Z,-0.20
2019-01-11T14:49:53.829Z,-0.20
2019-01-11T14:52:22.225Z,-0.30
2019-01-11T14:54:50.599Z,-0.30
2019-01-11T14:57:18.987Z,-0.10
2019-01-11T14:59:47.376Z,-0.20
2019-01-11T15:02:15.772Z,-0.20
2019-01-11T15:04:44.272Z,-0.50
2019-01-11T15:07:13.079Z,-0.40
2019-01-11T15:09:41.457Z,-0.30
2019-01-11T15:12:09.852Z,-0.40
2019-01-11T15:14:38.251Z,-0.50
2019-01-11T15:17:06.643Z,-0.40
2019-01-11T15:19:36.554Z,-0.50
2019-01-11T15:22:05.969Z,-0.40
2019-01-11T15:24:34.805Z,-0.50
2019-01-11T15:27:03.179Z,-0.40
2019-01-11T15:29:32.173Z,-0.40
2019-01-11T15:32:20.299Z,-0.40
2019-01-11T15:34:48.756Z,-0.40
2019-01-11T15:37:17.154Z,-0.50
2019-01-11T15:39:45.553Z,-0.50
2019-01-11T15:42:13.928Z,-0.60
2019-01-11T15:44:42.319Z,-0.60
2019-01-11T15:47:10.696Z,-0.60
2019-01-11T15:49:39.088Z,-0.60
2019-01-11T15:52:07.454Z,-0.60
2019-01-11T15:54:36.182Z,-0.70
2019-01-11T15:57:04.551Z,-0.70
2019-01-11T15:59:35.675Z,-0.60
2019-01-11T16:02:04.038Z,-0.60
2019-01-11T16:04:32.428Z,-0.60
2019-01-11T16:07:03.293Z,-0.60
2019-01-11T16:09:56.008Z,-0.60
2019-01-11T16:12:27.043Z,-0.70
2019-01-11T16:15:03.962Z,-0.70
2019-01-11T16:17:32.611Z,-0.70
2019-01-11T16:20:00.999Z,-0.70
2019-01-11T16:22:29.485Z,-0.70
2019-01-11T16:24:58.033Z,-0.60
2019-01-11T16:27:29.654Z,-0.60
2019-01-11T16:29:58.156Z,-0.60
2019-01-11T16:32:28.328Z,-0.60
2019-01-11T16:34:56.714Z,-0.60
2019-01-11T16:37:25.083Z,-0.60
2019-01-11T16:39:53.485Z,-0.60
2019-01-11T16:42:21.860Z,-0.50
2019-01-11T16:44:53.530Z,-0.60
2019-01-11T16:47:21.635Z,-0.60
2019-01-11T16:49:50.408Z,-0.50
2019-01-11T16:52:18.781Z,-0.50
2019-01-11T16:54:47.179Z,-0.30
2019-01-11T16:57:15.564Z,-0.30
2019-01-11T16:59:43.959Z,-0.40
2019-01-11T17:02:13.729Z,-0.40
2019-01-11T17:04:42.026Z,-0.30
2019-01-11T17:07:10.439Z,-0.30
2019-01-11T17:09:38.853Z,-0.30
2019-01-11T17:12:07.208Z,-0.30
2019-01-11T17:14:35.635Z,-0.30
2019-01-11T17:17:04.003Z,-0.20
2019-01-11T17:19:32.686Z,-0.20
2019-01-11T17:22:01.060Z,-0.30
2019-01-11T17:24:29.433Z,-0.20
2019-01-11T17:26:57.824Z,-0.40
2019-01-11T17:29:26.222Z,-0.40
2019-01-11T17:31:54.596Z,-0.40
2019-01-11T17:34:22.968Z,-0.40
2019-01-11T17:36:51.370Z,-0.40
2019-01-11T17:39:19.846Z,-0.30
2019-01-11T17:41:48.246Z,-0.30
2019-01-11T17:44:16.679Z,-0.30
2019-01-11T17:46:45.080Z,-0.30
2019-01-11T17:49:13.456Z,-0.30
2019-01-11T17:51:41.854Z,-0.30
2019-01-11T17:54:10.230Z,-0.40
2019-01-11T17:56:38.624Z,-0.30
2019-01-11T17:59:07.004Z,-0.30
2019-01-11T18:01:35.488Z,-0.40
2019-01-11T18:04:03.859Z,-0.40
2019-01-11T18:06:32.255Z,-0.30
2019-01-11T18:09:00.637Z,-0.30
2019-01-11T18:11:29.037Z,-0.20
2019-01-11T18:13:57.413Z,-0.20
2019-01-11T18:16:25.808Z,-0.20
2019-01-11T18:18:54.453Z,-0.30
2019-01-11T18:21:22.845Z,-0.20
2019-01-11T18:23:51.239Z,-0.20
2019-01-11T18:26:19.780Z,-0.20
2019-01-11T18:28:48.176Z,-0.30
2019-01-11T18:31:17.083Z,-0.30
2019-01-11T18:33:45.505Z,-0.30
2019-01-11T18:36:14.016Z,-0.20
2019-01-11T18:38:42.484Z,-0.20
2019-01-11T18:41:10.852Z,-0.20
2019-01-11T18:43:39.380Z,-0.20
2019-01-11T18:46:07.772Z,-0.20
2019-01-11T18:48:36.172Z,-0.20
2019-01-11T18:51:04.543Z,-0.20
2019-01-11T18:53:32.940Z,-0.20
2019-01-11T18:56:05.376Z,-0.20
2019-01-11T18:58:31.648Z,-0.10
2019-01-11T19:01:00.034Z,-0.20
2019-01-11T19:03:28.472Z,-0.10
2019-01-11T19:05:56.877Z,-0.10
2019-01-11T19:08:25.364Z,-0.10
2019-01-11T19:10:53.731Z,0.00
2019-01-11T19:13:22.157Z,0.00
2019-01-11T19:15:50.532Z,0.00
2019-01-11T19:18:18.929Z,0.00
2019-01-11T19:20:47.321Z,0.00
2019-01-11T19:23:20.422Z,0.00
2019-01-11T19:25:45.733Z,-0.10
2019-01-11T19:28:14.143Z,-0.10
2019-01-11T19:30:42.523Z,-0.20
2019-01-11T19:33:10.995Z,-0.10
2019-01-11T19:35:39.542Z,-0.10
2019-01-11T19:38:07.939Z,-0.10
2019-01-11T19:40:36.426Z,-0.10
2019-01-11T19:43:04.824Z,-0.10
2019-01-11T19:45:33.370Z,-0.10
2019-01-11T19:48:01.775Z,-0.10
2019-01-11T19:50:30.246Z,-0.10
2019-01-11T19:52:58.813Z,-0.10
2019-01-11T19:55:27.179Z,-0.10
2019-01-11T19:57:55.571Z,0.00
2019-01-11T20:00:26.820Z,-0.10
2019-01-11T20:02:55.305Z,-0.10
2019-01-11T20:05:24.209Z,0.00
2019-01-11T20:07:52.551Z,0.00
2019-01-11T20:10:23.821Z,0.00
2019-01-11T20:12:52.300Z,0.00
2019-01-11T20:15:20.681Z,0.00
2019-01-11T20:17:49.063Z,0.00
2019-01-11T20:20:17.428Z,0.10
2019-01-11T20:22:45.791Z,0.10
2019-01-11T20:25:19.841Z,0.10
2019-01-11T20:27:48.209Z,0.00
2019-01-11T20:30:19.035Z,0.00
2019-01-11T20:32:47.404Z,0.00
2019-01-11T20:35:16.908Z,0.00
2019-01-11T20:37:46.399Z,0.00
2019-01-11T20:40:15.944Z,0.10
2019-01-11T20:42:44.302Z,0.10
2019-01-11T20:45:14.544Z,0.10
2019-01-11T20:47:43.099Z,0.10
2019-01-11T20:50:16.500Z,0.10
2019-01-11T20:52:44.864Z,0.10
2019-01-11T20:55:13.509Z,0.10
2019-01-11T20:57:41.877Z,0.10
2019-01-11T21:00:16.687Z,0.10
2019-01-11T21:02:45.055Z,0.10
2019-01-11T21:05:13.513Z,0.10
2019-01-11T21:07:41.952Z,0.10
2019-01-11T21:10:11.682Z,0.10
2019-01-11T21:12:40.047Z,0.00
2019-01-11T21:15:11.745Z,0.10
2019-01-11T21:17:40.097Z,0.10
2019-01-11T21:20:11.372Z,0.20
2019-01-11T21:22:39.744Z,0.20
2019-01-11T21:25:11.655Z,0.20
2019-01-11T21:27:40.060Z,0.20
2019-01-11T21:30:20.307Z,0.20
2019-01-11T21:32:48.948Z,0.30
2019-01-11T21:35:17.308Z,0.30
2019-01-11T21:37:45.710Z,0.30
2019-01-11T21:40:18.739Z,0.40
2019-01-11T21:42:47.177Z,0.30
2019-01-11T21:45:16.201Z,0.40
2019-01-11T21:47:46.196Z,0.40
2019-01-11T21:50:17.961Z,0.40
2019-01-11T21:52:46.397Z,0.40
2019-01-11T21:55:14.865Z,0.50
2019-01-11T21:57:43.832Z,0.50
2019-01-11T22:00:21.376Z,0.50
2019-01-11T22:02:50.693Z,0.50
2019-01-11T22:05:19.163Z,0.30
2019-01-11T22:07:47.620Z,0.40
2019-01-11T22:10:17.018Z,0.50
2019-01-11T22:12:45.467Z,0.50
2019-01-11T22:15:17.187Z,0.60
2019-01-11T22:17:45.655Z,0.60
2019-01-11T22:20:17.398Z,0.60
2019-01-11T22:22:45.819Z,0.60
2019-01-11T22:25:16.300Z,0.60
2019-01-11T22:27:44.657Z,0.50
2019-01-11T22:30:18.635Z,0.50
2019-01-11T22:32:47.257Z,0.50
2019-01-11T22:35:15.627Z,0.50
2019-01-11T22:37:44.429Z,0.50
2019-01-11T22:40:17.316Z,0.50
2019-01-11T22:42:45.893Z,0.40
2019-01-11T22:45:15.712Z,0.60
2019-01-11T22:47:44.185Z,0.50
2019-01-11T22:50:14.853Z,0.50
2019-01-11T22:52:43.388Z,0.50
2019-01-11T22:55:14.009Z,0.50
2019-01-11T22:57:42.407Z,0.60
2019-01-11T23:00:40.944Z,0.60
2019-01-11T23:03:21.819Z,0.60
2019-01-11T23:05:53.425Z,0.50
2019-01-11T23:08:22.158Z,0.50
2019-01-11T23:10:56.892Z,0.60
2019-01-11T23:13:25.272Z,0.60
2019-01-11T23:15:54.172Z,0.50
2019-01-11T23:18:22.606Z,0.50
2019-01-11T23:20:50.972Z,0.60
2019-01-11T23:23:19.443Z,0.50
2019-01-11T23:25:47.820Z,0.50
2019-01-11T23:28:16.212Z,0.50
2019-01-11T23:30:44.573Z,0.50
2019-01-11T23:33:12.972Z,0.50
2019-01-11T23:35:41.367Z,0.40
2019-01-11T23:38:10.228Z,0.50
2019-01-11T23:40:38.597Z,0.50
2019-01-11T23:43:07.000Z,0.60
2019-01-11T23:45:35.359Z,0.60
2019-01-11T23:48:03.759Z,0.60
2019-01-11T23:50:32.396Z,0.60
2019-01-11T23:53:00.807Z,0.60
2019-01-11T23:55:29.275Z,0.60
2019-01-11T23:57:57.659Z,0.60
